KIAD

Washington Dulles International Airport

Washington, Virginia, USA
METAR KIAD 230752Z 09004KT 5SM BR OVC009 04/04 A3058 RMK AO2 SLP358 T00440044
Observed Flight Rules
Feb-23 @ 07:52 UTC (30 minutes ago) Instrument Flight Rules
Wind Visibility Clouds Conditions
90° at 4 knots 5 miles
  • Overcast at 900' AGL
  • Mist
Temperatures Readings
Current 4°C / 39°F
Dewpoint 4°C / 39°F
Humidity 100%
Altimeter 30.58" Hg
Pressure 1035.8 hPa
Elevation 93
METAR KIAD 230752Z 09004KT 5SM BR OVC009 04/04 A3058 RMK AO2 SLP358 T00440044
Observed Flight Rules
Feb-23 @ 07:52 UTC
(30 minutes ago)
IFR
Wind Visibility
90° at 4 knots 5 miles
Clouds
  • Overcast at 900' AGL
Conditions
  • Mist
Temperature Dewpoint
4°C / 39°F 4°C / 39°F
Humidity Altimeter Pressure
100% 30.58" Hg 1035.8 hPa